Time;durP1;ratioP1;P1;durP2;ratioP2;P2;SDS_P1;SDS_P2;PMS_P1;PMS_P2;Temp;Humidity;BMP_temperature;BMP_pressure;BME280_temperature;BME280_humidity;BME280_pressure;Samples;Min_cycle;Max_cycle;Signal;HPM_P1;HPM_P2
2023/01/27 00:00:18;;;;;;;;;;;4.10;99.90;;;;;;5020523;28;19928;-76
2023/01/27 00:02:44;;;;;;;;;;;4.20;99.90;;;;;;4985810;28;209199;-76
2023/01/27 00:05:11;;;;;;;;;;;4.10;99.90;;;;;;5025372;28;19937;-76
2023/01/27 00:07:37;;;;;;;;;;;4.10;99.90;;;;;;5007790;28;210940;-75
2023/01/27 00:10:04;;;;;;;;;;;4.10;99.90;;;;;;5050710;28;20407;-76
2023/01/27 00:15:15;;;;;;;;;;;4.20;99.90;;;;;;4989112;28;19929;-78
2023/01/27 00:17:41;;;;;;;;;;;4.20;99.90;;;;;;4988813;28;215161;-75
2023/01/27 00:20:07;;;;;;;;;;;4.10;99.90;;;;;;5020375;28;19928;-76
2023/01/27 00:25:18;;;;;;;;;;;4.10;99.90;;;;;;5035991;28;20508;-75
2023/01/27 00:27:44;;;;;;;;;;;4.20;99.90;;;;;;4973889;28;209461;-75
2023/01/27 00:30:11;;;;;;;;;;;4.10;99.90;;;;;;5037246;28;19924;-76
2023/01/27 00:35:22;;;;;;;;;;;4.20;99.90;;;;;;5037644;28;19935;-76
2023/01/27 00:37:48;;;;;;;;;;;4.10;99.90;;;;;;4992249;28;213482;-75
2023/01/27 00:40:15;;;;;;;;;;;4.10;99.90;;;;;;5039995;28;20421;-74
2023/01/27 00:42:41;;;;;;;;;;;4.20;99.90;;;;;;5008109;28;212296;-75
2023/01/27 00:47:52;;;;;;;;;;;4.10;99.90;;;;;;4997019;28;123765;-76
2023/01/27 00:50:19;;;;;;;;;;;4.10;99.90;;;;;;5071495;28;19935;-75
2023/01/27 00:52:45;;;;;;;;;;;4.10;99.90;;;;;;5005429;28;209328;-75
2023/01/27 00:55:11;;;;;;;;;;;4.10;99.90;;;;;;5035198;28;19931;-75
2023/01/27 00:57:37;;;;;;;;;;;4.10;99.90;;;;;;5010515;28;211074;-75
2023/01/27 01:00:04;;;;;;;;;;;4.10;99.90;;;;;;5051455;28;19928;-74
2023/01/27 01:02:30;;;;;;;;;;;4.10;99.90;;;;;;5008096;28;209035;-75
2023/01/27 01:04:57;;;;;;;;;;;4.10;99.90;;;;;;4982228;28;154820;-75
2023/01/27 01:07:23;;;;;;;;;;;4.10;99.90;;;;;;5045636;28;19928;-75
2023/01/27 01:09:49;;;;;;;;;;;4.10;99.90;;;;;;4968809;28;237806;-75
2023/01/27 01:12:14;;;;;;;;;;;4.10;99.90;;;;;;5071338;28;19927;-76
2023/01/27 01:14:40;;;;;;;;;;;4.10;99.90;;;;;;5003464;28;246912;-75
2023/01/27 01:17:06;;;;;;;;;;;4.10;99.90;;;;;;5043771;28;19935;-76
2023/01/27 01:19:32;;;;;;;;;;;4.10;99.90;;;;;;4995270;28;211520;-76
2023/01/27 01:21:59;;;;;;;;;;;4.10;99.90;;;;;;5058389;28;19929;-77
2023/01/27 01:24:26;;;;;;;;;;;4.10;99.90;;;;;;4992197;28;207803;-77
2023/01/27 01:26:53;;;;;;;;;;;4.10;99.90;;;;;;5059365;28;19921;-76
2023/01/27 01:29:19;;;;;;;;;;;4.10;99.90;;;;;;4999797;28;240408;-76
2023/01/27 01:31:45;;;;;;;;;;;4.10;99.90;;;;;;5041618;28;19967;-76
2023/01/27 01:34:10;;;;;;;;;;;4.10;99.90;;;;;;4965133;28;210582;-76
2023/01/27 01:36:36;;;;;;;;;;;4.10;99.90;;;;;;5008380;28;19925;-75
2023/01/27 01:39:02;;;;;;;;;;;4.10;99.90;;;;;;4988072;28;149841;-74
2023/01/27 01:41:28;;;;;;;;;;;4.10;99.90;;;;;;5032459;28;19942;-75
2023/01/27 01:43:54;;;;;;;;;;;4.10;99.90;;;;;;4972074;28;146187;-75
2023/01/27 01:46:20;;;;;;;;;;;4.10;99.90;;;;;;5018832;28;19921;-75
2023/01/27 01:48:49;;;;;;;;;;;4.10;99.90;;;;;;4991432;28;207006;-75
2023/01/27 01:51:20;;;;;;;;;;;4.10;99.90;;;;;;5039420;28;19921;-75
2023/01/27 01:53:51;;;;;;;;;;;4.10;99.90;;;;;;4978198;28;253674;-75
2023/01/27 01:56:21;;;;;;;;;;;4.10;99.90;;;;;;5043237;28;19920;-75
2023/01/27 01:58:47;;;;;;;;;;;4.10;99.90;;;;;;5008616;28;161583;-75
2023/01/27 02:01:14;;;;;;;;;;;4.10;99.90;;;;;;5067334;28;19932;-75
2023/01/27 02:03:41;;;;;;;;;;;4.10;99.90;;;;;;5002252;28;45446;-75
2023/01/27 02:06:08;;;;;;;;;;;4.10;99.90;;;;;;5046492;28;19921;-75
2023/01/27 02:08:37;;;;;;;;;;;4.10;99.90;;;;;;5000125;28;213179;-76
2023/01/27 02:11:03;;;;;;;;;;;4.10;99.90;;;;;;5056696;28;19940;-76
2023/01/27 02:13:29;;;;;;;;;;;4.20;99.90;;;;;;5003373;28;207333;-75
2023/01/27 02:15:54;;;;;;;;;;;4.10;99.90;;;;;;5057149;28;20571;-75
2023/01/27 02:18:20;;;;;;;;;;;4.20;99.90;;;;;;5017216;28;206356;-76
2023/01/27 02:20:51;;;;;;;;;;;4.20;99.90;;;;;;5062614;28;19944;-74
2023/01/27 02:23:35;;;;;;;;;;;4.20;99.90;;;;;;5020269;28;208662;-75
2023/01/27 02:26:08;;;;;;;;;;;4.20;99.90;;;;;;5055250;28;19920;-75
2023/01/27 02:28:34;;;;;;;;;;;4.20;99.90;;;;;;5002325;28;156666;-75
2023/01/27 02:31:00;;;;;;;;;;;4.20;99.90;;;;;;5051725;28;19968;-75
2023/01/27 02:33:26;;;;;;;;;;;4.20;99.90;;;;;;5009767;28;59831;-75
2023/01/27 02:35:52;;;;;;;;;;;4.20;99.90;;;;;;5070652;28;20385;-75
2023/01/27 02:38:18;;;;;;;;;;;4.20;99.90;;;;;;5026326;28;210208;-75
2023/01/27 02:40:47;;;;;;;;;;;4.20;99.90;;;;;;5036717;28;19924;-75
2023/01/27 02:43:13;;;;;;;;;;;4.20;99.90;;;;;;5016291;28;208539;-75
2023/01/27 02:45:39;;;;;;;;;;;4.30;99.90;;;;;;5067293;28;20320;-77
2023/01/27 02:48:06;;;;;;;;;;;4.20;99.90;;;;;;4998606;28;208128;-75
2023/01/27 02:50:35;;;;;;;;;;;4.20;99.90;;;;;;5045855;28;19924;-74
2023/01/27 02:53:01;;;;;;;;;;;4.20;99.90;;;;;;4993183;28;207487;-75
2023/01/27 02:55:27;;;;;;;;;;;4.20;99.90;;;;;;5024602;28;19928;-75
2023/01/27 02:57:53;;;;;;;;;;;4.20;99.90;;;;;;4982578;28;208872;-75
2023/01/27 03:00:19;;;;;;;;;;;4.20;99.90;;;;;;5033545;28;19917;-75
2023/01/27 03:02:45;;;;;;;;;;;4.20;99.90;;;;;;4974299;28;208994;-75
2023/01/27 03:05:11;;;;;;;;;;;4.20;99.90;;;;;;5007253;28;19929;-75
2023/01/27 03:07:37;;;;;;;;;;;4.20;99.90;;;;;;4996399;28;205037;-75
2023/01/27 03:10:04;;;;;;;;;;;4.20;99.90;;;;;;5068633;28;20569;-75
2023/01/27 03:12:31;;;;;;;;;;;4.20;99.90;;;;;;5035987;28;206647;-76
2023/01/27 03:20:29;;;;;;;;;;;4.20;99.90;;;;;;5044944;28;19925;-75
2023/01/27 03:22:55;;;;;;;;;;;4.20;99.90;;;;;;4974438;28;209847;-74
2023/01/27 03:25:24;;;;;;;;;;;4.20;99.90;;;;;;5055516;28;19950;-75
2023/01/27 03:27:50;;;;;;;;;;;4.10;99.90;;;;;;4997749;28;239841;-75
2023/01/27 03:30:16;;;;;;;;;;;4.20;99.90;;;;;;5051763;28;19920;-74
2023/01/27 03:32:45;;;;;;;;;;;4.20;99.90;;;;;;4992248;28;227926;-74
2023/01/27 03:35:14;;;;;;;;;;;4.10;99.90;;;;;;5052285;28;20430;-74
2023/01/27 03:48:39;;;;;;;;;;;4.10;99.90;;;;;;4997012;28;228238;-75
2023/01/27 03:51:06;;;;;;;;;;;4.10;99.90;;;;;;5056247;28;20278;-75
2023/01/27 03:53:32;;;;;;;;;;;4.10;99.90;;;;;;4985304;28;210419;-75
2023/01/27 03:56:01;;;;;;;;;;;4.10;99.90;;;;;;5058863;28;19925;-73
2023/01/27 03:58:32;;;;;;;;;;;4.10;99.90;;;;;;4989886;28;242314;-75
2023/01/27 04:01:03;;;;;;;;;;;4.00;99.90;;;;;;5052760;28;19921;-75
2023/01/27 04:09:02;;;;;;;;;;;4.00;99.90;;;;;;5008968;28;117547;-75
2023/01/27 04:14:12;;;;;;;;;;;4.00;99.90;;;;;;5000106;28;206862;-75
2023/01/27 04:16:38;;;;;;;;;;;4.00;99.90;;;;;;5062173;28;19928;-75
2023/01/27 04:19:05;;;;;;;;;;;4.00;99.90;;;;;;5004968;28;205904;-75
2023/01/27 04:21:31;;;;;;;;;;;4.00;99.90;;;;;;5061719;28;19947;-75
2023/01/27 04:23:57;;;;;;;;;;;4.00;99.90;;;;;;4983348;28;208740;-75
2023/01/27 04:26:23;;;;;;;;;;;4.00;99.90;;;;;;5076741;28;19920;-74
2023/01/27 04:28:49;;;;;;;;;;;3.90;99.90;;;;;;5028851;28;211611;-74
2023/01/27 04:31:16;;;;;;;;;;;3.90;99.90;;;;;;5076112;28;19936;-74
2023/01/27 04:33:42;;;;;;;;;;;3.90;99.90;;;;;;4991136;28;208974;-75
2023/01/27 04:36:10;;;;;;;;;;;3.90;99.90;;;;;;5060745;28;19924;-75
2023/01/27 04:38:36;;;;;;;;;;;3.90;99.90;;;;;;5006946;28;218018;-75
2023/01/27 04:41:02;;;;;;;;;;;3.90;99.90;;;;;;5027989;28;19927;-75
2023/01/27 04:43:29;;;;;;;;;;;3.90;99.90;;;;;;4971751;28;206312;-75
2023/01/27 04:45:55;;;;;;;;;;;3.90;99.90;;;;;;5036613;28;19928;-75
2023/01/27 04:48:21;;;;;;;;;;;3.90;99.90;;;;;;5006992;28;207848;-75
2023/01/27 04:50:47;;;;;;;;;;;3.90;99.90;;;;;;5038565;28;19924;-75
2023/01/27 04:53:13;;;;;;;;;;;3.90;99.90;;;;;;5007133;28;217289;-75
2023/01/27 04:55:40;;;;;;;;;;;3.90;99.90;;;;;;5052987;28;19924;-74
2023/01/27 04:58:06;;;;;;;;;;;3.90;99.90;;;;;;5002617;28;81852;-76
2023/01/27 05:00:32;;;;;;;;;;;3.90;99.90;;;;;;5037819;28;20384;-75
2023/01/27 05:02:58;;;;;;;;;;;3.90;99.90;;;;;;4977631;28;227512;-75
2023/01/27 05:05:24;;;;;;;;;;;3.90;99.90;;;;;;5041528;28;20309;-75
2023/01/27 05:07:50;;;;;;;;;;;3.80;99.90;;;;;;5010332;28;208866;-74
2023/01/27 05:10:16;;;;;;;;;;;3.80;99.90;;;;;;5051158;28;19927;-76
2023/01/27 05:12:42;;;;;;;;;;;3.80;99.90;;;;;;4984449;28;211020;-74
2023/01/27 05:15:08;;;;;;;;;;;3.80;99.90;;;;;;5036465;28;19924;-74
2023/01/27 05:17:34;;;;;;;;;;;3.80;99.90;;;;;;5005872;28;219877;-74
2023/01/27 05:20:00;;;;;;;;;;;3.80;99.90;;;;;;5035387;28;154147;-74
2023/01/27 05:22:26;;;;;;;;;;;3.80;99.90;;;;;;5039413;28;20385;-75
2023/01/27 05:24:51;;;;;;;;;;;3.80;99.90;;;;;;5008163;28;169722;-75
2023/01/27 05:27:17;;;;;;;;;;;3.80;99.90;;;;;;5040935;28;20660;-75
2023/01/27 05:29:43;;;;;;;;;;;3.80;99.90;;;;;;4993455;28;110181;-74
2023/01/27 05:32:09;;;;;;;;;;;3.80;99.90;;;;;;5046529;28;20369;-74
2023/01/27 05:34:35;;;;;;;;;;;3.80;99.90;;;;;;4981669;28;206677;-74
2023/01/27 05:37:01;;;;;;;;;;;3.80;99.90;;;;;;5044664;28;20009;-74
2023/01/27 05:39:27;;;;;;;;;;;3.80;99.90;;;;;;4976411;28;214884;-74
2023/01/27 05:41:53;;;;;;;;;;;3.80;99.90;;;;;;5042975;28;19979;-74
2023/01/27 05:44:19;;;;;;;;;;;3.80;99.90;;;;;;4995865;28;232198;-74
2023/01/27 05:46:45;;;;;;;;;;;3.80;99.90;;;;;;5061755;28;19929;-73
2023/01/27 05:49:11;;;;;;;;;;;3.80;99.90;;;;;;5006131;28;208419;-75
2023/01/27 05:51:40;;;;;;;;;;;3.80;99.90;;;;;;5067498;28;19950;-74
2023/01/27 05:54:07;;;;;;;;;;;3.80;99.90;;;;;;4972729;28;208498;-74
2023/01/27 05:56:33;;;;;;;;;;;3.70;99.90;;;;;;5044777;28;19927;-74
2023/01/27 05:58:59;;;;;;;;;;;3.80;99.90;;;;;;4994954;28;206617;-74
2023/01/27 06:01:27;;;;;;;;;;;3.80;99.90;;;;;;5041885;28;19924;-74
2023/01/27 06:03:53;;;;;;;;;;;3.80;99.90;;;;;;4976469;28;211299;-74
2023/01/27 06:06:20;;;;;;;;;;;3.70;99.90;;;;;;5031658;28;19936;-74
2023/01/27 06:08:54;;;;;;;;;;;3.70;99.90;;;;;;5000652;28;116040;-74
2023/01/27 06:11:21;;;;;;;;;;;3.70;99.90;;;;;;5044468;28;19935;-75
2023/01/27 06:13:47;;;;;;;;;;;3.70;99.90;;;;;;4989265;28;230002;-74
2023/01/27 06:16:16;;;;;;;;;;;3.70;99.90;;;;;;5014711;28;19936;-75
2023/01/27 06:18:43;;;;;;;;;;;3.70;99.90;;;;;;4996115;28;206524;-75
2023/01/27 06:21:09;;;;;;;;;;;3.70;99.90;;;;;;5071921;28;20632;-75
2023/01/27 06:23:36;;;;;;;;;;;3.60;99.90;;;;;;4987936;28;215474;-74
2023/01/27 06:26:03;;;;;;;;;;;3.70;99.90;;;;;;5059135;28;19946;-74
2023/01/27 06:28:29;;;;;;;;;;;3.70;99.90;;;;;;4974981;28;243564;-74
2023/01/27 06:30:55;;;;;;;;;;;3.60;99.90;;;;;;5046117;28;19940;-74
2023/01/27 06:33:21;;;;;;;;;;;3.60;99.90;;;;;;4991975;28;215603;-74
2023/01/27 06:35:47;;;;;;;;;;;3.60;99.90;;;;;;5059598;28;19924;-73
2023/01/27 06:38:14;;;;;;;;;;;3.70;99.90;;;;;;5000260;28;161936;-75
2023/01/27 06:40:40;;;;;;;;;;;3.70;99.90;;;;;;5058992;28;19925;-74
2023/01/27 06:43:12;;;;;;;;;;;3.60;99.90;;;;;;4976810;28;193154;-74
2023/01/27 06:45:38;;;;;;;;;;;3.70;99.90;;;;;;5059105;28;19940;-74
2023/01/27 06:48:04;;;;;;;;;;;3.60;99.90;;;;;;4946189;28;810778;-75
2023/01/27 06:50:30;;;;;;;;;;;3.70;99.90;;;;;;5056408;28;20435;-75
2023/01/27 06:53:00;;;;;;;;;;;3.60;99.90;;;;;;4993524;28;205280;-75
2023/01/27 06:55:29;;;;;;;;;;;3.60;99.90;;;;;;5041612;28;19925;-74
2023/01/27 06:57:55;;;;;;;;;;;3.70;99.90;;;;;;5006926;28;206706;-74
2023/01/27 07:00:24;;;;;;;;;;;3.70;99.90;;;;;;5039620;28;19925;-74
2023/01/27 07:02:50;;;;;;;;;;;3.60;99.90;;;;;;5002348;28;207757;-74
2023/01/27 07:05:16;;;;;;;;;;;3.70;99.90;;;;;;5070309;28;19932;-74
2023/01/27 07:07:42;;;;;;;;;;;3.70;99.90;;;;;;4987037;28;208355;-69
2023/01/27 07:10:08;;;;;;;;;;;3.70;99.90;;;;;;5036971;28;19924;-75
2023/01/27 07:12:38;;;;;;;;;;;3.70;99.90;;;;;;5029526;28;221759;-74
2023/01/27 07:15:05;;;;;;;;;;;3.70;99.90;;;;;;5030681;28;19931;-74
2023/01/27 07:17:31;;;;;;;;;;;3.60;99.90;;;;;;5043492;28;208568;-75
2023/01/27 07:19:57;;;;;;;;;;;3.70;99.90;;;;;;5002086;28;265990;-75
2023/01/27 07:22:22;;;;;;;;;;;3.60;99.90;;;;;;5038538;28;19924;-75
2023/01/27 07:24:49;;;;;;;;;;;3.60;99.90;;;;;;4979164;28;208945;-75
2023/01/27 07:27:14;;;;;;;;;;;3.60;99.90;;;;;;5040881;28;19921;-74
2023/01/27 07:29:40;;;;;;;;;;;3.60;99.90;;;;;;4974555;28;209784;-76
2023/01/27 07:32:07;;;;;;;;;;;3.60;99.90;;;;;;5062853;28;20261;-75
2023/01/27 07:34:32;;;;;;;;;;;3.50;99.90;;;;;;4984309;28;212312;-75
2023/01/27 07:36:58;;;;;;;;;;;3.50;99.90;;;;;;5042388;28;19928;-75
2023/01/27 07:39:25;;;;;;;;;;;3.50;99.90;;;;;;5004456;28;208803;-75
2023/01/27 07:41:51;;;;;;;;;;;3.50;99.90;;;;;;5035416;28;20008;-75
2023/01/27 07:44:17;;;;;;;;;;;3.50;99.90;;;;;;4984580;28;207298;-75
2023/01/27 07:46:43;;;;;;;;;;;3.50;99.90;;;;;;5040973;28;19936;-75
2023/01/27 07:49:11;;;;;;;;;;;3.40;99.90;;;;;;4987481;28;208052;-75
2023/01/27 07:51:37;;;;;;;;;;;3.40;99.90;;;;;;5027007;28;19991;-74
2023/01/27 07:54:03;;;;;;;;;;;3.40;99.90;;;;;;4977757;28;209772;-74
2023/01/27 07:56:31;;;;;;;;;;;3.40;99.90;;;;;;5046383;28;19927;-74
2023/01/27 07:58:57;;;;;;;;;;;3.40;99.90;;;;;;5014224;28;206629;-74
2023/01/27 08:01:23;;;;;;;;;;;3.40;99.90;;;;;;5046380;28;19925;-74
2023/01/27 08:03:50;;;;;;;;;;;3.30;99.90;;;;;;4973012;28;206690;-73
2023/01/27 08:06:16;;;;;;;;;;;3.30;99.90;;;;;;5050477;28;19929;-74
2023/01/27 08:08:41;;;;;;;;;;;3.30;99.90;;;;;;4983136;28;208678;-75
2023/01/27 08:11:10;;;;;;;;;;;3.30;99.90;;;;;;5045624;28;19932;-75
2023/01/27 08:13:37;;;;;;;;;;;3.40;99.90;;;;;;4985909;28;222086;-73
2023/01/27 08:16:04;;;;;;;;;;;3.40;99.90;;;;;;5027838;28;19924;-74
2023/01/27 08:18:32;;;;;;;;;;;3.50;99.90;;;;;;4977483;28;205689;-74
2023/01/27 08:20:59;;;;;;;;;;;3.50;99.90;;;;;;5055560;28;19924;-74
2023/01/27 08:23:25;;;;;;;;;;;3.50;99.90;;;;;;4988995;28;188625;-75
2023/01/27 08:25:55;;;;;;;;;;;3.50;99.90;;;;;;5060684;28;19932;-74
2023/01/27 08:28:21;;;;;;;;;;;3.50;99.90;;;;;;4978087;28;232876;-75
2023/01/27 08:30:51;;;;;;;;;;;3.60;99.90;;;;;;5028092;28;19943;-74
2023/01/27 08:33:20;;;;;;;;;;;3.60;99.90;;;;;;4993252;28;207859;-74
2023/01/27 08:35:47;;;;;;;;;;;3.70;99.90;;;;;;5034896;28;19937;-74
2023/01/27 08:38:14;;;;;;;;;;;3.70;99.90;;;;;;4904520;28;3003338;-74
2023/01/27 08:40:40;;;;;;;;;;;3.60;99.90;;;;;;5053174;28;19924;-74
2023/01/27 08:43:07;;;;;;;;;;;3.50;99.90;;;;;;4995131;28;157371;-73
2023/01/27 08:45:36;;;;;;;;;;;3.50;99.90;;;;;;5004249;28;19925;-76
2023/01/27 08:48:02;;;;;;;;;;;3.60;99.90;;;;;;4985457;28;208613;-73
2023/01/27 08:50:29;;;;;;;;;;;3.60;99.90;;;;;;5037090;28;19925;-73
2023/01/27 08:52:57;;;;;;;;;;;3.70;99.90;;;;;;4969813;28;207123;-73
2023/01/27 08:55:25;;;;;;;;;;;3.70;99.90;;;;;;5028909;28;20403;-73
2023/01/27 08:57:51;;;;;;;;;;;3.70;99.90;;;;;;4991243;28;214377;-74
2023/01/27 09:00:17;;;;;;;;;;;3.70;99.90;;;;;;5024097;28;19924;-73
2023/01/27 09:02:44;;;;;;;;;;;3.80;99.90;;;;;;5010001;28;208621;-74
2023/01/27 09:05:10;;;;;;;;;;;3.70;99.90;;;;;;5047264;28;20512;-74
2023/01/27 09:07:36;;;;;;;;;;;3.80;99.90;;;;;;5017709;28;208635;-73
2023/01/27 09:10:03;;;;;;;;;;;3.90;99.90;;;;;;5044641;28;19932;-73
2023/01/27 09:12:29;;;;;;;;;;;4.00;99.90;;;;;;5061496;28;209592;-74
2023/01/27 09:14:57;;;;;;;;;;;4.10;99.90;;;;;;4992446;28;35756;-74
2023/01/27 09:17:23;;;;;;;;;;;4.10;99.90;;;;;;5045650;28;20433;-74
2023/01/27 09:19:49;;;;;;;;;;;4.10;99.90;;;;;;4977800;28;200444;-74
2023/01/27 09:22:15;;;;;;;;;;;4.20;99.90;;;;;;5023783;28;20454;-73
2023/01/27 09:24:44;;;;;;;;;;;4.20;99.90;;;;;;4995996;28;209513;-74
2023/01/27 09:27:10;;;;;;;;;;;4.30;99.90;;;;;;5028201;28;19925;-75
2023/01/27 09:29:36;;;;;;;;;;;4.30;99.90;;;;;;5002948;28;209123;-74
2023/01/27 09:32:02;;;;;;;;;;;4.30;99.90;;;;;;5062708;28;19932;-74
2023/01/27 09:34:28;;;;;;;;;;;4.30;99.90;;;;;;4995182;28;168818;-74
2023/01/27 09:36:59;;;;;;;;;;;4.30;99.90;;;;;;5025721;28;19921;-74
2023/01/27 09:39:26;;;;;;;;;;;4.30;99.90;;;;;;4989643;28;212959;-74
2023/01/27 09:41:58;;;;;;;;;;;4.40;99.90;;;;;;5027299;28;19924;-74
2023/01/27 09:44:36;;;;;;;;;;;4.40;99.90;;;;;;4971749;28;204752;-74
2023/01/27 09:47:22;;;;;;;;;;;4.40;99.90;;;;;;5061237;28;20317;-75
2023/01/27 09:49:51;;;;;;;;;;;4.50;99.90;;;;;;4989592;28;206139;-74
2023/01/27 09:52:36;;;;;;;;;;;4.60;99.90;;;;;;5044596;28;20815;-74
2023/01/27 09:55:06;;;;;;;;;;;4.70;99.90;;;;;;4983682;28;209961;-73
2023/01/27 09:57:35;;;;;;;;;;;4.80;99.90;;;;;;5045983;28;210917;-74
2023/01/27 10:00:19;;;;;;;;;;;5.00;99.90;;;;;;5018490;28;135538;-75
2023/01/27 10:03:04;;;;;;;;;;;4.90;99.90;;;;;;4980141;28;212764;-74
2023/01/27 10:05:37;;;;;;;;;;;5.00;99.90;;;;;;5042238;28;19929;-74
2023/01/27 10:08:21;;;;;;;;;;;5.10;99.90;;;;;;5000227;28;219838;-75
2023/01/27 10:10:56;;;;;;;;;;;5.00;99.90;;;;;;5028134;28;19936;-76
2023/01/27 10:13:42;;;;;;;;;;;5.00;99.90;;;;;;4981170;28;221822;-75
2023/01/27 10:16:12;;;;;;;;;;;5.00;99.90;;;;;;5015371;28;19925;-74
2023/01/27 10:18:48;;;;;;;;;;;5.00;99.90;;;;;;4989534;28;208947;-74
2023/01/27 10:21:20;;;;;;;;;;;5.10;99.90;;;;;;5038198;28;19925;-75
2023/01/27 10:24:21;;;;;;;;;;;5.30;99.90;;;;;;5002626;28;216051;-75
2023/01/27 10:26:47;;;;;;;;;;;5.40;99.90;;;;;;5022642;28;19933;-74
2023/01/27 10:29:24;;;;;;;;;;;5.50;99.90;;;;;;4969631;28;25210;-75
2023/01/27 10:31:55;;;;;;;;;;;5.40;99.90;;;;;;5006610;28;19925;-75
2023/01/27 10:34:33;;;;;;;;;;;5.40;99.90;;;;;;4978978;28;35914;-75
2023/01/27 10:37:05;;;;;;;;;;;5.30;99.90;;;;;;5007734;28;20306;-74
2023/01/27 10:39:40;;;;;;;;;;;5.30;99.90;;;;;;4962589;28;212725;-74
2023/01/27 10:42:35;;;;;;;;;;;5.40;99.90;;;;;;5004065;28;19925;-74
2023/01/27 10:45:01;;;;;;;;;;;5.50;99.90;;;;;;4909324;28;252897;-72
2023/01/27 10:47:27;;;;;;;;;;;5.70;99.90;;;;;;4989446;28;221044;-73
2023/01/27 10:50:00;;;;;;;;;;;5.60;99.90;;;;;;4948764;28;236927;-73
2023/01/27 10:52:32;;;;;;;;;;;5.60;99.90;;;;;;5023458;28;203866;-73
2023/01/27 10:55:01;;;;;;;;;;;5.60;99.90;;;;;;4942048;28;221968;-73
2023/01/27 10:57:36;;;;;;;;;;;5.50;99.90;;;;;;5005744;28;217015;-73
2023/01/27 11:00:11;;;;;;;;;;;5.40;99.90;;;;;;4956915;28;206984;-73
2023/01/27 11:02:46;;;;;;;;;;;5.30;99.90;;;;;;4970667;28;234403;-74
2023/01/27 11:05:21;;;;;;;;;;;5.30;99.90;;;;;;5026563;28;20390;-73
2023/01/27 11:07:58;;;;;;;;;;;5.30;99.90;;;;;;4984948;28;238407;-73
2023/01/27 11:10:29;;;;;;;;;;;5.20;99.90;;;;;;5035154;28;19925;-73
2023/01/27 11:12:57;;;;;;;;;;;5.20;99.90;;;;;;4993447;28;141589;-74
2023/01/27 11:15:25;;;;;;;;;;;5.20;99.90;;;;;;5041690;28;19923;-73
2023/01/27 11:18:03;;;;;;;;;;;5.20;99.90;;;;;;4990964;28;206329;-73
2023/01/27 11:20:31;;;;;;;;;;;5.20;99.90;;;;;;5044231;28;19924;-72
2023/01/27 11:23:03;;;;;;;;;;;5.20;99.90;;;;;;5058188;28;19928;-73
2023/01/27 11:25:55;;;;;;;;;;;5.20;99.90;;;;;;5061617;28;20046;-73
2023/01/27 11:28:30;;;;;;;;;;;5.20;99.90;;;;;;5009160;28;19924;-73
2023/01/27 11:31:14;;;;;;;;;;;5.20;99.90;;;;;;4970304;28;211061;-73
2023/01/27 11:33:56;;;;;;;;;;;5.20;99.90;;;;;;5039583;28;19925;-73
2023/01/27 11:36:23;;;;;;;;;;;5.20;99.90;;;;;;4992627;28;219371;-73
2023/01/27 11:38:49;;;;;;;;;;;5.10;99.90;;;;;;5053472;28;20464;-74
2023/01/27 11:41:15;;;;;;;;;;;5.10;99.90;;;;;;4973123;28;83874;-72
2023/01/27 11:43:41;;;;;;;;;;;5.10;99.90;;;;;;5032429;28;19925;-72
2023/01/27 11:46:11;;;;;;;;;;;5.10;99.90;;;;;;5006916;28;169533;-72
2023/01/27 11:48:40;;;;;;;;;;;5.10;99.90;;;;;;5045482;28;20333;-72
2023/01/27 11:51:15;;;;;;;;;;;5.00;99.90;;;;;;5025837;28;210720;-72
2023/01/27 11:53:42;;;;;;;;;;;4.90;99.90;;;;;;5040104;28;19921;-72
2023/01/27 11:56:14;;;;;;;;;;;4.90;99.90;;;;;;5014798;28;208450;-72
2023/01/27 11:59:00;;;;;;;;;;;4.90;99.90;;;;;;5060414;28;19928;-72
2023/01/27 12:01:37;;;;;;;;;;;4.90;99.90;;;;;;5010973;28;204332;-72
2023/01/27 12:04:14;;;;;;;;;;;4.90;99.90;;;;;;5016259;28;2997954;-72
2023/01/27 12:06:53;;;;;;;;;;;4.90;99.90;;;;;;5008519;28;20412;-72
2023/01/27 12:09:30;;;;;;;;;;;4.90;99.90;;;;;;5000277;28;225744;-72
2023/01/27 12:12:15;;;;;;;;;;;4.80;99.90;;;;;;5052583;28;19928;-72
2023/01/27 12:14:48;;;;;;;;;;;4.80;99.90;;;;;;4998748;28;209333;-72
2023/01/27 12:17:18;;;;;;;;;;;4.70;99.90;;;;;;5032825;28;19924;-73
2023/01/27 12:19:44;;;;;;;;;;;4.70;99.90;;;;;;4998147;28;208248;-72
2023/01/27 12:22:23;;;;;;;;;;;4.80;99.90;;;;;;5019641;28;19924;-72
2023/01/27 12:24:53;;;;;;;;;;;4.70;99.90;;;;;;5001035;28;212582;-72
2023/01/27 12:27:20;;;;;;;;;;;4.70;99.90;;;;;;5032731;28;19925;-72
2023/01/27 12:29:52;;;;;;;;;;;4.70;99.90;;;;;;4989090;28;231405;-72
2023/01/27 12:32:38;;;;;;;;;;;4.70;99.90;;;;;;5044794;28;20270;-72
2023/01/27 12:35:04;;;;;;;;;;;4.70;99.90;;;;;;4999142;28;48152;-72
2023/01/27 12:37:33;;;;;;;;;;;4.70;99.90;;;;;;5041821;28;19924;-72
2023/01/27 12:40:01;;;;;;;;;;;4.70;99.90;;;;;;5000699;28;199944;-72
2023/01/27 12:42:38;;;;;;;;;;;4.70;99.90;;;;;;5035143;28;19924;-72
2023/01/27 12:45:23;;;;;;;;;;;4.70;99.90;;;;;;5008592;28;208355;-72
2023/01/27 12:47:59;;;;;;;;;;;4.70;99.90;;;;;;5040234;28;19921;-73
2023/01/27 12:50:27;;;;;;;;;;;4.60;99.90;;;;;;5006326;28;211261;-72
2023/01/27 12:53:03;;;;;;;;;;;4.60;99.90;;;;;;5055641;28;20296;-72
2023/01/27 12:55:30;;;;;;;;;;;4.60;99.90;;;;;;4973294;28;208701;-72
2023/01/27 12:57:56;;;;;;;;;;;4.60;99.90;;;;;;5005869;28;20408;-73
2023/01/27 13:00:24;;;;;;;;;;;4.60;99.90;;;;;;4963876;28;207037;-72
2023/01/27 13:02:50;;;;;;;;;;;4.60;99.90;;;;;;5046705;28;20399;-73
2023/01/27 13:05:17;;;;;;;;;;;4.60;99.90;;;;;;4978520;28;206000;-73
2023/01/27 13:07:47;;;;;;;;;;;4.60;99.90;;;;;;5036439;28;19932;-73
2023/01/27 13:10:23;;;;;;;;;;;4.60;99.90;;;;;;4978003;28;271857;-73
2023/01/27 13:12:53;;;;;;;;;;;4.60;99.90;;;;;;5064728;28;20415;-73
2023/01/27 13:15:21;;;;;;;;;;;4.50;99.90;;;;;;4992908;28;241082;-74
2023/01/27 13:17:48;;;;;;;;;;;4.50;99.90;;;;;;5035818;28;19936;-74
2023/01/27 13:20:14;;;;;;;;;;;4.60;99.90;;;;;;5003842;28;221995;-73
2023/01/27 13:22:42;;;;;;;;;;;4.60;99.90;;;;;;5042344;28;19933;-73
2023/01/27 13:25:13;;;;;;;;;;;4.60;99.90;;;;;;4985402;28;212426;-73
2023/01/27 13:27:40;;;;;;;;;;;4.50;99.90;;;;;;5018972;28;19925;-73
2023/01/27 13:30:18;;;;;;;;;;;4.50;99.90;;;;;;4980474;28;249941;-73
2023/01/27 13:32:46;;;;;;;;;;;4.50;99.90;;;;;;5030014;28;20324;-73
2023/01/27 13:35:18;;;;;;;;;;;4.50;99.90;;;;;;4988619;28;216567;-73
2023/01/27 13:37:50;;;;;;;;;;;4.40;99.90;;;;;;5059290;28;19920;-73
2023/01/27 13:40:28;;;;;;;;;;;4.50;99.90;;;;;;5033629;28;19928;-73
2023/01/27 13:42:57;;;;;;;;;;;4.50;99.90;;;;;;5050172;28;19932;-74
2023/01/27 13:45:27;;;;;;;;;;;4.50;99.90;;;;;;5037544;28;19928;-72
2023/01/27 13:48:01;;;;;;;;;;;4.50;99.90;;;;;;5056357;28;19928;-73
2023/01/27 13:50:29;;;;;;;;;;;4.40;99.90;;;;;;5002344;28;208824;-73
2023/01/27 13:52:56;;;;;;;;;;;4.30;99.90;;;;;;5027546;28;20294;-73
2023/01/27 13:55:40;;;;;;;;;;;4.30;99.90;;;;;;5022571;28;19951;-73
2023/01/27 13:58:06;;;;;;;;;;;4.30;99.90;;;;;;4965116;28;110475;-72
2023/01/27 14:00:36;;;;;;;;;;;4.30;99.90;;;;;;5034192;28;19983;-72
2023/01/27 14:03:21;;;;;;;;;;;4.30;99.90;;;;;;5030405;28;19935;-72
2023/01/27 14:05:58;;;;;;;;;;;4.30;99.90;;;;;;4967000;28;206192;-73
2023/01/27 14:08:24;;;;;;;;;;;4.30;99.90;;;;;;5022869;28;20294;-72
2023/01/27 14:11:09;;;;;;;;;;;4.30;99.90;;;;;;4985761;28;81513;-71
2023/01/27 14:13:50;;;;;;;;;;;4.30;99.90;;;;;;5039718;28;20285;-72
2023/01/27 14:16:20;;;;;;;;;;;4.30;99.90;;;;;;4995420;28;72412;-72
2023/01/27 14:18:49;;;;;;;;;;;4.30;99.90;;;;;;5067136;28;19925;-72
2023/01/27 14:21:30;;;;;;;;;;;4.30;99.90;;;;;;5011042;28;212358;-71
2023/01/27 14:24:02;;;;;;;;;;;4.20;99.90;;;;;;5058798;28;19929;-72
2023/01/27 14:26:33;;;;;;;;;;;4.30;99.90;;;;;;5024692;28;209093;-72
2023/01/27 14:29:04;;;;;;;;;;;4.20;99.90;;;;;;5062222;28;19921;-72
2023/01/27 14:31:33;;;;;;;;;;;4.20;99.90;;;;;;4988360;28;210764;-73
2023/01/27 14:34:05;;;;;;;;;;;4.20;99.90;;;;;;5063126;28;19939;-73
2023/01/27 14:36:42;;;;;;;;;;;4.20;99.90;;;;;;4961063;28;106777;-72
2023/01/27 14:39:10;;;;;;;;;;;4.20;99.90;;;;;;5068126;28;21051;-72
2023/01/27 14:41:46;;;;;;;;;;;4.20;99.90;;;;;;5005141;28;208298;-72
2023/01/27 14:44:15;;;;;;;;;;;4.20;99.90;;;;;;5046365;28;19927;-73
2023/01/27 14:46:54;;;;;;;;;;;4.20;99.90;;;;;;5018665;28;212664;-72
2023/01/27 14:49:26;;;;;;;;;;;4.10;99.90;;;;;;5031278;28;19921;-72
2023/01/27 14:52:15;;;;;;;;;;;4.10;99.90;;;;;;4989917;28;225640;-73
2023/01/27 14:54:53;;;;;;;;;;;4.10;99.90;;;;;;4988536;28;226112;-73
2023/01/27 14:57:37;;;;;;;;;;;4.10;99.90;;;;;;5041471;28;20734;-72
2023/01/27 15:00:20;;;;;;;;;;;4.10;99.90;;;;;;5010511;28;207833;-72
2023/01/27 15:03:07;;;;;;;;;;;4.10;99.90;;;;;;5050568;28;19924;-72
2023/01/27 15:05:42;;;;;;;;;;;4.00;99.90;;;;;;4988585;28;208457;-72
2023/01/27 15:08:25;;;;;;;;;;;4.10;99.90;;;;;;5037903;28;19929;-73
2023/01/27 15:11:09;;;;;;;;;;;4.10;99.90;;;;;;5037242;28;19925;-74